Time;durP1;ratioP1;P1;durP2;ratioP2;P2;SDS_P1;SDS_P2;PMS_P1;PMS_P2;Temp;Humidity;BMP_temperature;BMP_pressure;BME280_temperature;BME280_humidity;BME280_pressure;Samples;Min_cycle;Max_cycle;Signal;HPM_P1;HPM_P2
2022/06/03 00:01:30;;;;;;;1.90;1.90;;;;;;;12.19;100.00;97266.69;5025707;28;20554;-51
2022/06/03 00:04:15;;;;;;;2.37;1.87;;;;;;;12.05;100.00;97268.41;5038698;28;20243;-58
2022/06/03 00:06:56;;;;;;;2.90;1.97;;;;;;;12.14;100.00;97269.13;5025949;28;20214;-51
2022/06/03 00:09:42;;;;;;;2.50;2.30;;;;;;;12.20;100.00;97270.16;5032686;28;20205;-52
2022/06/03 00:12:40;;;;;;;1.80;1.80;;;;;;;12.25;100.00;97276.56;5035991;28;20941;-51
2022/06/03 00:15:25;;;;;;;2.73;2.20;;;;;;;12.15;100.00;97268.09;5023912;28;20821;-55
2022/06/03 00:18:09;;;;;;;1.93;1.87;;;;;;;12.29;100.00;97279.63;5037720;28;20691;-58
2022/06/03 00:20:51;;;;;;;2.20;2.10;;;;;;;12.08;100.00;97275.16;5021727;28;20257;-54
2022/06/03 00:23:53;;;;;;;2.13;2.03;;;;;;;12.16;100.00;97267.09;5003284;28;21555;-54
2022/06/03 00:26:34;;;;;;;2.10;2.03;;;;;;;12.12;100.00;97266.63;5037810;28;20293;-55
2022/06/03 00:29:14;;;;;;;2.30;2.20;;;;;;;12.15;100.00;97262.78;5040913;28;20231;-54
2022/06/03 00:32:10;;;;;;;2.60;2.40;;;;;;;12.13;100.00;97265.63;5028368;28;20324;-57
2022/06/03 00:34:58;;;;;;;2.47;2.00;;;;;;;12.04;100.00;97273.91;5038170;28;20211;-58
2022/06/03 00:37:32;;;;;;;2.00;2.00;;;;;;;11.92;100.00;97268.25;5024509;28;20312;-53
2022/06/03 00:40:08;;;;;;;2.20;2.10;;;;;;;11.92;100.00;97268.25;4997541;28;20305;-57
2022/06/03 00:42:58;;;;;;;2.33;2.23;;;;;;;11.84;100.00;97254.09;5038734;28;20294;-54
2022/06/03 00:45:50;;;;;;;2.20;2.10;;;;;;;11.86;100.00;97257.38;5039302;28;20342;-58
2022/06/03 00:48:36;;;;;;;2.33;2.10;;;;;;;11.90;100.00;97262.31;5028448;28;20458;-52
2022/06/03 00:51:33;;;;;;;2.23;2.13;;;;;;;11.97;100.00;97266.69;5033535;28;20549;-55
2022/06/03 00:54:37;;;;;;;2.07;1.97;;;;;;;12.01;100.00;97264.50;4986758;28;20222;-56
2022/06/03 00:57:28;;;;;;;2.50;2.30;;;;;;;11.95;100.00;97258.09;5028869;28;20749;-54
2022/06/03 01:00:08;;;;;;;3.57;2.33;;;;;;;11.83;100.00;97254.31;5039165;28;20539;-57
2022/06/03 01:02:51;;;;;;;2.23;2.13;;;;;;;11.73;100.00;97249.31;5026256;28;20234;-55
2022/06/03 01:05:26;;;;;;;2.53;2.43;;;;;;;11.87;100.00;97252.91;5044693;28;20314;-52
2022/06/03 01:08:04;;;;;;;4.63;2.37;;;;;;;11.85;100.00;97260.25;5023904;28;20274;-57
2022/06/03 01:11:00;;;;;;;3.00;2.63;;;;;;;11.83;100.00;97257.78;5004845;28;20215;-54
2022/06/03 01:13:40;;;;;;;2.10;2.00;;;;;;;11.65;100.00;97252.91;5042962;28;20207;-57
2022/06/03 01:16:22;;;;;;;2.07;1.97;;;;;;;11.60;100.00;97257.16;5040653;28;20229;-55
2022/06/03 01:18:57;;;;;;;2.33;2.23;;;;;;;11.41;100.00;97256.72;5027558;28;20231;-55
2022/06/03 01:21:37;;;;;;;2.27;2.07;;;;;;;11.41;100.00;97251.44;5042390;28;20547;-54
2022/06/03 01:24:28;;;;;;;2.50;2.30;;;;;;;11.30;100.00;97239.47;4979473;28;20822;-57
2022/06/03 01:27:34;;;;;;;4.00;3.70;;;;;;;11.18;100.00;97252.41;5028130;28;20696;-56
2022/06/03 01:30:29;;;;;;;2.00;1.93;;;;;;;11.37;100.00;97239.56;5022739;28;20310;-59
2022/06/03 01:33:20;;;;;;;2.13;2.00;;;;;;;11.22;100.00;97243.09;5012806;28;20219;-58
2022/06/03 01:36:09;;;;;;;3.10;2.10;;;;;;;11.34;100.00;97246.03;5028971;28;21585;-54
2022/06/03 01:38:49;;;;;;;2.23;2.13;;;;;;;11.38;100.00;97230.59;5038837;28;20223;-56
2022/06/03 01:41:30;;;;;;;2.60;2.30;;;;;;;11.23;100.00;97233.28;4992012;28;20538;-56
2022/06/03 01:44:10;;;;;;;2.03;1.93;;;;;;;11.38;100.00;97235.88;5038812;28;20216;-56
2022/06/03 01:46:40;;;;;;;2.10;2.00;;;;;;;11.21;100.00;97230.00;5041244;28;20202;-52
2022/06/03 01:49:26;;;;;;;2.30;2.20;;;;;;;11.18;100.00;97235.66;5024321;28;20729;-52
2022/06/03 01:52:29;;;;;;;2.23;2.13;;;;;;;11.06;100.00;97233.50;5040574;28;20258;-55
2022/06/03 01:55:43;;;;;;;2.10;2.00;;;;;;;11.00;100.00;97232.41;5009502;28;20225;-56
2022/06/03 01:58:25;;;;;;;4.23;2.63;;;;;;;11.05;100.00;97229.22;4914132;28;20345;-52
2022/06/03 02:01:04;;;;;;;3.00;2.80;;;;;;;11.06;100.00;97227.38;4943660;28;20206;-58
2022/06/03 02:03:45;;;;;;;2.40;2.30;;;;;;;10.94;100.00;97225.19;4946308;28;20210;-56
2022/06/03 02:06:49;;;;;;;2.33;2.23;;;;;;;10.99;100.00;97232.63;4928088;28;20238;-58
2022/06/03 02:09:40;;;;;;;2.60;2.50;;;;;;;10.94;100.00;97229.66;4925384;28;20368;-54
2022/06/03 02:12:40;;;;;;;2.30;2.20;;;;;;;10.85;100.00;97231.63;4876019;28;21017;-54
2022/06/03 02:15:29;;;;;;;3.53;3.30;;;;;;;10.73;100.00;97228.59;4943474;28;20511;-52
2022/06/03 02:18:44;;;;;;;2.47;2.30;;;;;;;10.75;100.00;97220.47;4942568;28;20541;-55
2022/06/03 02:21:40;;;;;;;2.50;2.40;;;;;;;10.66;100.00;97220.56;4926424;28;20887;-54
2022/06/03 02:24:29;;;;;;;2.30;2.20;;;;;;;10.63;100.00;97236.81;4894496;28;20547;-56
2022/06/03 02:27:18;;;;;;;2.40;2.30;;;;;;;10.54;100.00;97230.78;4872443;28;20453;-58
2022/06/03 02:33:17;;;;;;;2.70;2.50;;;;;;;10.34;100.00;97243.72;4946015;28;20327;-55
2022/06/03 02:36:04;;;;;;;2.97;2.77;;;;;;;10.36;100.00;97244.34;4994524;28;20242;-55
2022/06/03 02:38:47;;;;;;;2.57;2.47;;;;;;;10.37;100.00;97248.66;5000206;28;20244;-53
2022/06/03 02:41:46;;;;;;;2.30;2.20;;;;;;;10.31;100.00;97259.16;4972061;28;21083;-55
2022/06/03 02:44:43;;;;;;;2.53;2.43;;;;;;;10.28;100.00;97252.38;4958748;28;20300;-55
2022/06/03 02:47:52;;;;;;;2.37;2.13;;;;;;;10.21;100.00;97246.16;5001708;28;20337;-54
2022/06/03 02:50:34;;;;;;;2.90;2.80;;;;;;;10.14;100.00;97241.59;4994774;28;20288;-55
2022/06/03 02:53:25;;;;;;;2.70;2.60;;;;;;;10.10;100.00;97247.41;4974238;28;20332;-56
2022/06/03 02:56:06;;;;;;;3.00;2.80;;;;;;;10.11;100.00;97249.91;4974322;28;20209;-57
2022/06/03 02:59:02;;;;;;;2.30;2.20;;;;;;;10.07;100.00;97239.84;5005869;28;20990;-52
2022/06/03 03:01:54;;;;;;;3.00;2.90;;;;;;;10.22;100.00;97243.34;4995680;28;20287;-54
2022/06/03 03:04:44;;;;;;;2.80;2.60;;;;;;;10.09;100.00;97238.69;5012923;28;20226;-54
2022/06/03 03:07:26;;;;;;;3.00;2.90;;;;;;;10.05;100.00;97247.16;4997822;28;20425;-55
2022/06/03 03:10:07;;;;;;;3.20;3.00;;;;;;;10.19;100.00;97250.81;5017234;28;23005;-56
2022/06/03 03:13:13;;;;;;;2.50;2.40;;;;;;;10.18;100.00;97244.69;5013869;28;20229;-56
2022/06/03 03:16:14;;;;;;;2.77;2.67;;;;;;;10.14;100.00;97249.53;4995025;28;20852;-57
2022/06/03 03:19:08;;;;;;;2.87;2.77;;;;;;;10.16;100.00;97253.84;5036281;28;20796;-58
2022/06/03 03:21:52;;;;;;;3.13;3.03;;;;;;;10.11;100.00;97249.91;5034118;28;20730;-57
2022/06/03 03:24:49;;;;;;;2.70;2.60;;;;;;;10.11;100.00;97262.31;5042922;28;20207;-54
2022/06/03 03:27:30;;;;;;;2.70;2.60;;;;;;;10.12;100.00;97256.84;5038331;28;20228;-57
2022/06/03 03:30:12;;;;;;;2.60;2.50;;;;;;;10.09;100.00;97248.44;5008769;28;20207;-55
2022/06/03 03:33:06;;;;;;;2.83;2.73;;;;;;;10.08;100.00;97244.97;4993091;28;20228;-56
2022/06/03 03:35:52;;;;;;;2.90;2.80;;;;;;;10.09;100.00;97253.72;5034569;28;20206;-56
2022/06/03 03:38:36;;;;;;;2.87;2.77;;;;;;;10.07;100.00;97259.22;5017334;28;20231;-58
2022/06/03 03:41:30;;;;;;;3.23;2.93;;;;;;;10.10;100.00;97263.31;5038551;28;21039;-50
2022/06/03 03:44:32;;;;;;;3.10;2.90;;;;;;;10.14;100.00;97268.06;5010147;28;20261;-57
2022/06/03 03:47:22;;;;;;;3.33;3.13;;;;;;;10.20;100.00;97260.41;4997758;28;20210;-57
2022/06/03 03:50:32;;;;;;;2.90;2.80;;;;;;;10.21;100.00;97254.94;5035233;28;20436;-55
2022/06/03 03:53:17;;;;;;;2.90;2.70;;;;;;;10.46;100.00;97264.50;4989788;28;20525;-59
2022/06/03 03:56:24;;;;;;;3.47;3.17;;;;;;;10.38;100.00;97268.84;5032410;28;20294;-57
2022/06/03 03:59:26;;;;;;;3.17;3.03;;;;;;;10.41;100.00;97265.84;5035646;28;20491;-59
2022/06/03 04:02:14;;;;;;;2.93;2.70;;;;;;;10.47;100.00;97260.84;4971815;28;20206;-52
2022/06/03 04:05:02;;;;;;;3.53;3.33;;;;;;;10.59;100.00;97263.84;5033908;28;20235;-55
2022/06/03 04:08:03;;;;;;;2.93;2.83;;;;;;;10.80;100.00;97252.56;5026606;28;20229;-59
2022/06/03 04:10:56;;;;;;;3.47;3.23;;;;;;;10.84;100.00;97251.19;5040596;28;20235;-57
2022/06/03 04:13:57;;;;;;;3.67;3.47;;;;;;;10.95;100.00;97253.34;5036195;28;20235;-57
2022/06/03 04:16:59;;;;;;;2.90;2.70;;;;;;;11.13;100.00;97246.81;5005465;28;20682;-54
2022/06/03 04:19:42;;;;;;;3.03;2.93;;;;;;;11.33;100.00;97251.56;4997706;28;20214;-56
2022/06/03 04:22:27;;;;;;;2.83;2.73;;;;;;;11.51;100.00;97251.94;5036286;28;20235;-56
2022/06/03 04:25:20;;;;;;;3.53;2.77;;;;;;;11.64;100.00;97248.59;5030921;28;20913;-55
2022/06/03 04:28:20;;;;;;;2.70;2.60;;;;;;;11.83;100.00;97251.66;5039156;28;20491;-53
2022/06/03 04:31:33;;;;;;;3.63;3.43;;;;;;;12.21;100.00;97250.56;5037936;28;20531;-56
2022/06/03 04:34:38;;;;;;;2.83;2.73;;;;;;;12.39;100.00;97258.03;4995422;28;20235;-53
2022/06/03 04:37:43;;;;;;;3.10;2.90;;;;;;;12.65;100.00;97265.38;5037330;28;20218;-51
2022/06/03 04:40:40;;;;;;;2.87;2.73;;;;;;;12.77;100.00;97260.31;5029987;28;20291;-53
2022/06/03 04:43:46;;;;;;;2.63;2.53;;;;;;;13.03;100.00;97266.81;5038266;28;20211;-53
2022/06/03 04:46:55;;;;;;;2.83;2.73;;;;;;;13.09;100.00;97267.88;5038887;28;20246;-56
2022/06/03 04:50:11;;;;;;;2.87;2.77;;;;;;;13.36;100.00;97258.13;4973581;28;20553;-56
2022/06/03 04:53:43;;;;;;;2.80;2.70;;;;;;;13.73;100.00;97252.50;4967155;28;20228;-58
2022/06/03 04:56:46;;;;;;;3.00;2.90;;;;;;;14.02;100.00;97258.47;4893353;29;20212;-53
2022/06/03 04:59:50;;;;;;;2.70;2.60;;;;;;;14.33;100.00;97251.72;4894037;29;20212;-51
2022/06/03 05:02:51;;;;;;;3.10;2.90;;;;;;;14.69;100.00;97247.78;4893578;29;20247;-57
2022/06/03 05:05:58;;;;;;;2.70;2.60;;;;;;;14.83;100.00;97256.59;4827704;29;20621;-56
2022/06/03 05:08:53;;;;;;;3.10;2.90;;;;;;;14.85;100.00;97246.53;4869098;29;20233;-58
2022/06/03 05:12:03;;;;;;;2.90;2.70;;;;;;;14.99;100.00;97243.81;4893721;29;20308;-55
2022/06/03 05:15:04;;;;;;;2.93;2.77;;;;;;;15.08;100.00;97244.41;4865101;29;21034;-58
2022/06/03 05:18:05;;;;;;;3.20;3.00;;;;;;;15.21;100.00;97241.66;4889003;29;20327;-54
2022/06/03 05:20:55;;;;;;;2.83;2.67;;;;;;;15.52;100.00;97232.06;4821571;29;20484;-57
2022/06/03 05:23:46;;;;;;;2.73;2.53;;;;;;;15.70;100.00;97230.50;4884283;29;20252;-57
2022/06/03 05:26:50;;;;;;;2.80;2.67;;;;;;;15.81;100.00;97231.69;4884633;28;20237;-58
2022/06/03 05:29:37;;;;;;;3.10;3.00;;;;;;;15.85;100.00;97236.38;4965690;28;20276;-55
2022/06/03 05:32:38;;;;;;;3.13;2.50;;;;;;;15.91;100.00;97229.41;5043550;28;20256;-54
2022/06/03 05:35:36;;;;;;;2.87;2.77;;;;;;;15.90;100.00;97236.56;5012505;28;20677;-59
2022/06/03 05:38:37;;;;;;;2.83;2.70;;;;;;;15.93;100.00;97230.00;5039656;28;20519;-55
2022/06/03 05:44:23;;;;;;;2.97;2.80;;;;;;;15.70;100.00;97227.84;5042278;28;20281;-58
2022/06/03 05:46:59;;;;;;;3.23;3.03;;;;;;;15.90;100.00;97233.06;5041684;28;20291;-55
2022/06/03 05:49:38;;;;;;;3.10;2.90;;;;;;;16.05;100.00;97236.25;5035877;28;20233;-51
2022/06/03 05:52:20;;;;;;;2.70;2.50;;;;;;;16.27;99.45;97238.53;4974636;28;20226;-55
2022/06/03 05:55:00;;;;;;;2.80;2.70;;;;;;;16.35;98.13;97229.41;5044536;28;20250;-57
2022/06/03 05:57:35;;;;;;;2.70;2.50;;;;;;;16.53;97.71;97241.19;5013189;28;20841;-52
2022/06/03 06:00:22;;;;;;;2.77;2.67;;;;;;;16.87;93.65;97236.31;5035780;28;20214;-54
2022/06/03 06:02:57;;;;;;;3.47;3.27;;;;;;;16.96;96.43;97229.63;5045366;28;20217;-55
2022/06/03 06:05:36;;;;;;;2.60;2.50;;;;;;;16.99;93.35;97233.72;5032945;28;20262;-56
2022/06/03 06:08:14;;;;;;;3.27;3.07;;;;;;;17.23;91.44;97236.53;4982723;28;20309;-55
2022/06/03 06:10:49;;;;;;;2.60;2.50;;;;;;;17.39;92.25;97230.53;5035325;28;20207;-55
2022/06/03 06:13:51;;;;;;;2.80;2.53;;;;;;;17.44;93.55;97224.50;5025161;28;20230;-55
2022/06/03 06:16:21;;;;;;;4.40;3.30;;;;;;;17.58;92.88;97227.81;5018625;28;20318;-57
2022/06/03 06:18:58;;;;;;;3.13;2.93;;;;;;;17.45;91.73;97216.28;5040654;28;21016;-51
2022/06/03 06:21:34;;;;;;;3.30;2.93;;;;;;;17.63;90.62;97215.41;5016668;28;20365;-56
2022/06/03 06:24:13;;;;;;;2.83;2.73;;;;;;;17.57;91.14;97224.31;5002438;28;20211;-52
2022/06/03 06:27:11;;;;;;;2.60;2.50;;;;;;;17.57;91.62;97220.84;5039832;28;20469;-55
2022/06/03 06:30:05;;;;;;;2.80;2.67;;;;;;;17.83;92.32;97221.50;5023127;28;20844;-56
2022/06/03 06:32:39;;;;;;;3.13;2.93;;;;;;;17.83;91.22;97224.97;5036783;28;20264;-56
2022/06/03 06:35:46;;;;;;;3.27;2.93;;;;;;;18.04;90.94;97228.22;5039193;28;20267;-53
2022/06/03 06:38:18;;;;;;;2.73;2.53;;;;;;;18.13;89.00;97226.81;5008697;28;20234;-58
2022/06/03 06:40:59;;;;;;;3.33;3.03;;;;;;;18.15;88.85;97226.56;5035661;28;20208;-52
2022/06/03 06:43:40;;;;;;;2.80;2.60;;;;;;;18.46;86.34;97220.06;5027189;28;20206;-54
2022/06/03 06:46:15;;;;;;;3.27;3.03;;;;;;;18.22;92.12;97228.09;5036783;28;20242;-56
2022/06/03 06:48:58;;;;;;;2.90;2.70;;;;;;;18.28;87.67;97223.69;5035873;28;20317;-54
2022/06/03 06:51:48;;;;;;;2.83;2.73;;;;;;;18.05;87.49;97224.47;5037953;28;20199;-54
2022/06/03 06:54:23;;;;;;;2.50;2.40;;;;;;;18.04;89.17;97222.84;4995937;28;20224;-58
2022/06/03 06:56:57;;;;;;;3.27;3.07;;;;;;;18.25;92.43;97234.03;5037828;28;20211;-55
2022/06/03 06:59:31;;;;;;;3.10;3.00;;;;;;;18.51;87.67;97228.22;5022361;28;20632;-56
2022/06/03 07:02:03;;;;;;;3.00;2.80;;;;;;;18.79;87.13;97229.38;5041666;28;20214;-53
2022/06/03 07:04:36;;;;;;;2.90;2.80;;;;;;;18.96;84.87;97239.38;5033880;28;20826;-52
2022/06/03 07:07:09;;;;;;;2.67;2.50;;;;;;;19.29;85.70;97226.34;5040839;28;20314;-56
2022/06/03 07:09:41;;;;;;;2.67;2.57;;;;;;;19.33;81.32;97225.63;4979901;28;20785;-57
2022/06/03 07:12:14;;;;;;;3.33;3.13;;;;;;;19.06;85.24;97212.75;5041324;28;20389;-55
2022/06/03 07:14:56;;;;;;;3.63;3.10;;;;;;;19.52;81.09;97217.38;5038991;28;20914;-54
2022/06/03 07:20:27;;;;;;;3.23;3.03;;;;;;;19.67;78.95;97228.41;5036162;28;20289;-55
2022/06/03 07:22:58;;;;;;;3.00;2.80;;;;;;;19.58;75.90;97229.84;5044061;28;20588;-55
2022/06/03 07:25:30;;;;;;;3.23;3.10;;;;;;;19.38;82.82;97223.03;4979358;28;20216;-55
2022/06/03 07:28:02;;;;;;;2.90;2.80;;;;;;;19.42;81.29;97231.44;5040796;28;20292;-55
2022/06/03 07:30:40;;;;;;;2.90;2.80;;;;;;;19.78;83.94;97220.50;5023004;28;20511;-57
2022/06/03 07:33:12;;;;;;;3.97;2.90;;;;;;;20.04;81.96;97212.91;5035812;28;20211;-56
2022/06/03 07:35:47;;;;;;;2.40;2.30;;;;;;;20.12;79.13;97222.44;5039168;28;20534;-55
2022/06/03 07:38:26;;;;;;;2.80;2.70;;;;;;;20.23;75.44;97208.88;5036381;28;20236;-58
2022/06/03 07:40:59;;;;;;;3.00;2.77;;;;;;;20.15;78.44;97217.38;4984445;28;20720;-52
2022/06/03 07:43:30;;;;;;;3.57;2.73;;;;;;;20.10;75.27;97207.38;5035409;28;20210;-52
2022/06/03 07:46:01;;;;;;;3.10;3.00;;;;;;;20.23;79.48;97198.13;5039158;28;20650;-56
2022/06/03 07:48:32;;;;;;;3.07;2.73;;;;;;;20.43;80.71;97198.66;5019667;28;20226;-51
2022/06/03 07:51:06;;;;;;;3.17;2.97;;;;;;;20.79;80.49;97193.81;5037772;28;20547;-55
2022/06/03 07:53:43;;;;;;;2.83;2.63;;;;;;;20.76;79.17;97188.88;5032778;28;20203;-55
2022/06/03 07:56:11;;;;;;;2.83;2.63;;;;;;;20.95;75.16;97175.97;4976344;28;20261;-57
2022/06/03 07:58:39;;;;;;;2.90;2.70;;;;;;;21.01;74.53;97172.25;5032507;28;20599;-55
2022/06/03 08:01:21;;;;;;;3.30;2.77;;;;;;;20.94;73.75;97174.34;5041157;28;20238;-55
2022/06/03 08:03:50;;;;;;;2.67;2.57;;;;;;;21.04;74.48;97173.66;5032347;28;20329;-54
2022/06/03 08:06:26;;;;;;;3.23;3.03;;;;;;;21.23;77.15;97169.56;5039590;28;20269;-55
2022/06/03 08:11:43;;;;;;;3.10;2.77;;;;;;;21.47;73.69;97163.06;4981081;28;20944;-57
2022/06/03 08:14:11;;;;;;;3.10;2.90;;;;;;;21.57;69.63;97170.41;5037145;28;20333;-54
2022/06/03 08:16:45;;;;;;;2.90;2.70;;;;;;;21.71;71.64;97160.88;5019652;28;20413;-55
2022/06/03 08:19:16;;;;;;;3.33;3.10;;;;;;;21.75;69.86;97161.97;5036161;28;20609;-54
2022/06/03 08:21:46;;;;;;;3.07;2.97;;;;;;;21.91;70.28;97160.22;5037988;28;20210;-58
2022/06/03 08:24:16;;;;;;;2.70;2.60;;;;;;;22.01;73.23;97156.78;5039760;28;20290;-60
2022/06/03 08:26:51;;;;;;;3.07;2.83;;;;;;;21.94;72.81;97156.19;4998854;28;20660;-54
2022/06/03 08:29:27;;;;;;;4.40;3.10;;;;;;;22.00;69.69;97157.03;5038778;28;20689;-55
2022/06/03 08:31:57;;;;;;;3.03;2.83;;;;;;;22.35;71.57;97147.53;5047807;28;20259;-54
2022/06/03 08:34:28;;;;;;;2.87;2.77;;;;;;;21.92;70.10;97151.06;5029045;28;20281;-57
2022/06/03 08:36:56;;;;;;;3.30;3.00;;;;;;;22.21;70.25;97142.63;5039851;28;20231;-57
2022/06/03 08:39:26;;;;;;;2.93;2.63;;;;;;;22.50;72.09;97147.66;5040111;28;20211;-54
2022/06/03 08:42:11;;;;;;;3.10;2.90;;;;;;;22.39;69.59;97143.25;4984895;28;20310;-55
2022/06/03 08:44:54;;;;;;;2.90;2.80;;;;;;;22.64;73.43;97152.59;5041458;28;20509;-54
2022/06/03 08:47:30;;;;;;;3.13;2.90;;;;;;;22.60;69.13;97144.19;5038788;28;20219;-56
2022/06/03 08:50:01;;;;;;;3.20;3.00;;;;;;;22.51;66.93;97143.06;5026249;28;20245;-57
2022/06/03 08:52:38;;;;;;;3.10;2.90;;;;;;;22.76;69.86;97142.38;5035960;28;20420;-55
2022/06/03 08:55:21;;;;;;;2.80;2.60;;;;;;;22.80;67.81;97137.28;5034619;28;20305;-57
2022/06/03 08:57:52;;;;;;;2.90;2.50;;;;;;;22.98;67.69;97127.88;4997247;28;20219;-55
2022/06/03 09:00:25;;;;;;;3.13;2.93;;;;;;;23.20;65.72;97133.06;5039615;28;20231;-57
2022/06/03 09:02:58;;;;;;;2.90;2.70;;;;;;;23.20;64.93;97126.81;5041729;28;20212;-56
2022/06/03 09:05:30;;;;;;;3.07;2.90;;;;;;;23.32;63.56;97123.91;5030677;28;20456;-54
2022/06/03 09:08:03;;;;;;;3.47;3.17;;;;;;;23.36;60.57;97119.59;5043346;28;20246;-56
2022/06/03 09:10:35;;;;;;;2.90;2.70;;;;;;;23.01;64.37;97113.84;5041908;28;20485;-56
2022/06/03 09:13:10;;;;;;;4.30;3.10;;;;;;;23.28;65.95;97112.81;5008232;28;20326;-57
2022/06/03 09:15:43;;;;;;;2.53;2.43;;;;;;;23.54;67.69;97113.66;5034092;28;20227;-54
2022/06/03 09:18:16;;;;;;;2.93;2.80;;;;;;;23.55;64.61;97112.59;5036794;28;20941;-57
2022/06/03 09:21:02;;;;;;;5.47;3.30;;;;;;;23.34;63.19;97102.81;5029612;28;20212;-51
2022/06/03 09:23:35;;;;;;;3.00;2.80;;;;;;;23.47;65.69;97115.00;5037266;28;20204;-57
2022/06/03 09:26:03;;;;;;;2.60;2.50;;;;;;;23.50;66.35;97100.94;5035871;28;20285;-56
2022/06/03 09:28:34;;;;;;;2.77;2.67;;;;;;;23.56;68.68;97107.97;5022308;28;20638;-58
2022/06/03 09:31:05;;;;;;;2.60;2.50;;;;;;;23.94;68.61;97099.56;5002931;28;20296;-59
2022/06/03 09:33:37;;;;;;;3.00;2.90;;;;;;;24.09;63.14;97099.56;5038972;28;20199;-61
2022/06/03 09:36:12;;;;;;;3.20;3.00;;;;;;;24.11;65.19;97097.41;5024641;28;20493;-57
2022/06/03 09:38:46;;;;;;;2.90;2.70;;;;;;;24.20;65.92;97097.66;5040963;28;20266;-57
2022/06/03 09:41:15;;;;;;;2.47;2.37;;;;;;;24.07;61.38;97093.63;5019567;28;20287;-58
2022/06/03 09:43:45;;;;;;;3.10;2.90;;;;;;;24.13;59.13;97094.44;5042860;28;20302;-57
2022/06/03 09:46:15;;;;;;;2.90;2.80;;;;;;;24.23;63.52;97093.56;5004628;28;20285;-59
2022/06/03 09:48:45;;;;;;;2.73;2.60;;;;;;;23.95;62.27;97098.50;5040361;28;20227;-56
2022/06/03 09:51:19;;;;;;;3.10;3.00;;;;;;;24.30;64.09;97096.81;5026145;28;20257;-58
2022/06/03 09:53:48;;;;;;;3.80;3.60;;;;;;;24.30;58.62;97087.88;5036822;28;20260;-60
2022/06/03 09:56:24;;;;;;;4.30;3.90;;;;;;;24.59;60.81;97088.03;5036880;28;20333;-58
2022/06/03 09:58:55;;;;;;;3.00;2.80;;;;;;;24.62;56.76;97090.19;5021530;28;20246;-55
2022/06/03 10:01:23;;;;;;;2.90;2.60;;;;;;;24.46;58.76;97092.16;4997687;28;20399;-55
2022/06/03 10:03:59;;;;;;;2.40;2.30;;;;;;;24.47;57.12;97085.66;5043261;28;20217;-55
2022/06/03 10:06:47;;;;;;;3.47;2.70;;;;;;;24.50;57.83;97078.88;5038390;28;20598;-60
2022/06/03 10:17:32;;;;;;;4.33;2.70;;;;;;;25.38;55.46;97067.53;5000777;28;20294;-57
2022/06/03 10:20:09;;;;;;;2.33;2.23;;;;;;;25.17;55.29;97070.41;5035006;28;20207;-56
2022/06/03 10:22:38;;;;;;;2.87;2.77;;;;;;;25.14;52.12;97071.78;5028443;28;20199;-56
2022/06/03 10:25:07;;;;;;;2.60;2.50;;;;;;;25.22;56.35;97050.59;5036490;28;20240;-57
2022/06/03 10:27:36;;;;;;;2.97;2.77;;;;;;;25.14;56.09;97054.72;5019093;28;20456;-59
2022/06/03 10:30:06;;;;;;;3.10;2.60;;;;;;;25.19;57.76;97056.56;5036554;28;20212;-54
2022/06/03 10:32:34;;;;;;;3.13;2.67;;;;;;;25.25;57.63;97037.28;5006082;28;20425;-55
2022/06/03 10:35:13;;;;;;;2.73;2.63;;;;;;;25.16;56.16;97036.25;5036353;28;20219;-57
2022/06/03 10:37:49;;;;;;;3.00;2.90;;;;;;;25.20;52.81;97040.03;5041928;28;20230;-57
2022/06/03 10:40:19;;;;;;;2.73;2.63;;;;;;;25.09;55.94;97033.88;5024677;28;20230;-57
2022/06/03 10:42:48;;;;;;;2.67;2.57;;;;;;;25.32;56.30;97028.81;5040229;28;20235;-55
2022/06/03 10:45:16;;;;;;;2.70;2.50;;;;;;;25.07;57.07;97033.34;5009180;28;20306;-56
2022/06/03 10:47:45;;;;;;;2.70;2.60;;;;;;;25.48;57.71;97026.00;5000690;28;20260;-58
2022/06/03 10:50:27;;;;;;;2.97;2.77;;;;;;;25.67;53.33;97024.19;5032630;28;20266;-56
2022/06/03 11:01:32;;;;;;;2.07;1.97;;;;;;;25.87;54.43;96995.22;5023604;28;20406;-53
2022/06/03 11:04:01;;;;;;;3.37;3.17;;;;;;;26.03;53.31;96989.63;5002720;28;20211;-56
2022/06/03 11:06:37;;;;;;;2.67;2.57;;;;;;;26.14;55.77;96991.94;5038894;28;20846;-54
2022/06/03 11:09:07;;;;;;;2.53;2.43;;;;;;;26.27;52.71;96987.72;5036552;28;20239;-56
2022/06/03 11:11:39;;;;;;;2.40;2.30;;;;;;;26.37;50.38;96977.84;5032931;28;20430;-55
2022/06/03 11:14:24;;;;;;;3.10;2.90;;;;;;;26.23;50.47;96983.97;5034778;28;20295;-56
2022/06/03 11:16:58;;;;;;;2.40;2.30;;;;;;;26.23;56.33;96975.84;5038070;28;20232;-53
2022/06/03 11:19:31;;;;;;;2.60;2.47;;;;;;;26.51;54.21;96976.00;4996366;28;20208;-55
2022/06/03 11:22:23;;;;;;;3.00;2.90;;;;;;;26.41;51.33;96962.59;5033392;28;20303;-56
2022/06/03 11:24:55;;;;;;;2.60;2.50;;;;;;;26.66;53.13;96960.59;5024990;28;20292;-52
2022/06/03 11:27:26;;;;;;;3.10;2.90;;;;;;;26.66;51.04;96966.84;5034573;28;20776;-54
2022/06/03 11:29:58;;;;;;;2.87;2.77;;;;;;;26.58;50.45;96968.31;5017783;28;20298;-55
2022/06/03 11:32:27;;;;;;;3.00;2.80;;;;;;;26.83;52.04;96960.06;5031645;28;20225;-55
2022/06/03 11:34:58;;;;;;;2.80;2.60;;;;;;;27.06;47.52;96963.00;5001975;28;20310;-54
2022/06/03 11:37:29;;;;;;;2.90;2.80;;;;;;;26.92;50.70;96952.06;5035392;28;20673;-50
2022/06/03 11:40:01;;;;;;;2.57;2.47;;;;;;;26.98;48.57;96950.88;5039874;28;20301;-54
2022/06/03 11:42:36;;;;;;;2.60;2.50;;;;;;;27.09;48.32;96941.47;5025940;28;20216;-50
2022/06/03 11:45:11;;;;;;;2.60;2.50;;;;;;;27.14;51.37;96949.53;5034341;28;20212;-56
2022/06/03 11:47:48;;;;;;;2.73;2.63;;;;;;;27.24;49.52;96947.75;5034068;28;20228;-51
2022/06/03 11:50:18;;;;;;;2.87;2.77;;;;;;;27.21;47.62;96946.41;5000721;28;20600;-58
2022/06/03 11:52:50;;;;;;;2.60;2.40;;;;;;;27.24;47.36;96943.09;5041312;28;20205;-57
2022/06/03 11:55:19;;;;;;;2.87;2.60;;;;;;;27.51;49.41;96940.78;5032739;28;20213;-57
2022/06/03 11:57:51;;;;;;;2.90;2.70;;;;;;;27.48;46.40;96949.50;5020269;28;20260;-58
2022/06/03 12:00:21;;;;;;;2.37;2.27;;;;;;;27.66;46.26;96939.69;5035501;28;20300;-59
2022/06/03 12:03:00;;;;;;;3.00;2.90;;;;;;;27.65;47.73;96938.88;5018322;28;20565;-54
2022/06/03 12:05:31;;;;;;;3.10;2.40;;;;;;;27.69;44.29;96936.34;5000677;28;20435;-58
2022/06/03 12:08:06;;;;;;;2.93;2.77;;;;;;;27.86;45.21;96942.00;5041434;28;20231;-55
2022/06/03 12:10:43;;;;;;;2.60;2.50;;;;;;;28.08;45.78;96937.75;5037053;28;20201;-59
2022/06/03 12:13:17;;;;;;;2.70;2.50;;;;;;;28.11;43.36;96953.47;5021880;28;20221;-55
2022/06/03 12:15:58;;;;;;;2.53;2.33;;;;;;;28.11;44.16;96948.03;5033663;28;20298;-54
2022/06/03 12:19:01;;;;;;;2.83;2.63;;;;;;;28.27;45.24;96951.28;5012925;28;20311;-54
2022/06/03 12:21:49;;;;;;;2.97;2.77;;;;;;;28.38;43.92;96957.28;4997445;28;20455;-56
2022/06/03 12:24:27;;;;;;;3.03;2.37;;;;;;;28.81;42.48;96958.81;5036265;28;20391;-56
2022/06/03 12:26:56;;;;;;;3.07;2.90;;;;;;;29.36;41.14;96964.31;5037284;28;20287;-52
2022/06/03 12:29:30;;;;;;;2.70;2.50;;;;;;;29.86;38.55;96974.19;5019038;28;20212;-57
2022/06/03 12:32:10;;;;;;;2.77;2.67;;;;;;;30.17;39.12;96965.16;5043698;28;20805;-54
2022/06/03 12:34:38;;;;;;;3.10;2.80;;;;;;;30.53;37.48;96964.09;5031035;28;20234;-55
2022/06/03 12:37:23;;;;;;;3.13;2.93;;;;;;;31.29;37.34;96947.53;4977106;28;20433;-60
2022/06/03 12:40:01;;;;;;;3.43;2.60;;;;;;;32.99;33.49;96945.97;5037807;28;20203;-56
2022/06/03 12:42:38;;;;;;;2.53;2.43;;;;;;;36.18;29.21;96932.41;5024250;28;20292;-54
2022/06/03 12:45:33;;;;;;;2.60;2.40;;;;;;;38.43;26.62;96939.28;5020917;28;20951;-54
2022/06/03 12:48:02;;;;;;;2.43;2.33;;;;;;;40.00;24.58;96935.00;5014171;28;20983;-55
2022/06/03 12:50:38;;;;;;;2.20;2.10;;;;;;;40.47;23.03;96928.94;5040044;28;20213;-54
2022/06/03 12:53:42;;;;;;;2.90;2.78;;;;;;;42.15;22.05;96925.28;5005083;28;20602;-51
2022/06/03 12:56:20;;;;;;;2.30;2.20;;;;;;;42.54;21.08;96910.47;5033905;28;20297;-54
2022/06/03 12:58:59;;;;;;;2.08;2.08;;;;;;;41.78;21.58;96908.63;5012050;28;20308;-56
2022/06/03 13:01:49;;;;;;;2.15;2.05;;;;;;;41.92;21.20;96884.78;5038631;28;20293;-56
2022/06/03 13:04:46;;;;;;;2.70;2.22;;;;;;;40.43;22.03;96887.28;5018085;28;20787;-53
2022/06/03 13:07:37;;;;;;;2.40;2.30;;;;;;;39.89;22.67;96889.75;4964502;28;21129;-52
2022/06/03 13:10:21;;;;;;;2.75;2.53;;;;;;;38.46;24.21;96897.06;5032537;28;20220;-53